Time;durP1;ratioP1;P1;durP2;ratioP2;P2;SDS_P1;SDS_P2;PMS_P1;PMS_P2;Temp;Humidity;BMP_temperature;BMP_pressure;BME280_temperature;BME280_humidity;BME280_pressure;Samples;Min_cycle;Max_cycle;Signal;HPM_P1;HPM_P2
2022/02/13 00:01:32;;;;;;;;;;;;;;;;;;5086365;28;19908;-69
2022/02/13 00:03:58;;;;;;;;;;;;;;;;;;5085799;28;20407;-70
2022/02/13 00:06:24;;;;;;;;;;;;;;;;;;5086208;28;19917;-70
2022/02/13 00:08:50;;;;;;;;;;;;;;;;;;5093123;28;19960;-69
2022/02/13 00:11:16;;;;;;;;;;;;;;;;;;5086872;28;19927;-70
2022/02/13 00:13:42;;;;;;;;;;;;;;;;;;5085376;28;19908;-70
2022/02/13 00:16:08;;;;;;;;;;;;;;;;;;5085737;28;19908;-70
2022/02/13 00:18:34;;;;;;;;;;;;;;;;;;5085899;28;19909;-70
2022/02/13 00:21:00;;;;;;;;;;;;;;;;;;5089029;28;19904;-69
2022/02/13 00:23:26;;;;;;;;;;;;;;;;;;5088776;28;19920;-69
2022/02/13 00:25:52;;;;;;;;;;;;;;;;;;5085924;28;19904;-70
2022/02/13 00:28:17;;;;;;;;;;;;;;;;;;5085178;28;19955;-70
2022/02/13 00:30:46;;;;;;;;;;;;;;;;;;5073087;28;20282;-69
2022/02/13 00:33:12;;;;;;;;;;;;;;;;;;5087140;28;19912;-69
2022/02/13 00:35:38;;;;;;;;;;;;;;;;;;5092065;28;19904;-69
2022/02/13 00:38:05;;;;;;;;;;;;;;;;;;5086716;28;19911;-69
2022/02/13 00:40:31;;;;;;;;;;;;;;;;;;5085242;28;19959;-69
2022/02/13 00:42:56;;;;;;;;;;;;;;;;;;5085315;28;19947;-69
2022/02/13 00:45:22;;;;;;;;;;;;;;;;;;5084424;28;19912;-70
2022/02/13 00:47:48;;;;;;;;;;;;;;;;;;5093041;28;19912;-69
2022/02/13 00:50:14;;;;;;;;;;;;;;;;;;5086935;28;20355;-69
2022/02/13 00:52:40;;;;;;;;;;;;;;;;;;5085232;28;19936;-69
2022/02/13 00:55:06;;;;;;;;;;;;;;;;;;5086511;28;19959;-69
2022/02/13 00:57:32;;;;;;;;;;;;;;;;;;5085095;28;19905;-69
2022/02/13 00:59:58;;;;;;;;;;;;;;;;;;5090400;28;19962;-69
2022/02/13 01:02:23;;;;;;;;;;;;;;;;;;5087330;28;20387;-69
2022/02/13 01:04:49;;;;;;;;;;;;;;;;;;5084778;28;19904;-69
2022/02/13 01:07:15;;;;;;;;;;;;;;;;;;5084881;28;20390;-69
2022/02/13 01:09:42;;;;;;;;;;;;;;;;;;5084817;28;19904;-69
2022/02/13 01:12:07;;;;;;;;;;;;;;;;;;5085600;28;20382;-69
2022/02/13 01:14:33;;;;;;;;;;;;;;;;;;5089478;28;19912;-69
2022/02/13 01:16:59;;;;;;;;;;;;;;;;;;5084666;28;19958;-69
2022/02/13 01:19:25;;;;;;;;;;;;;;;;;;5084652;28;19908;-69
2022/02/13 01:21:51;;;;;;;;;;;;;;;;;;5084299;28;19916;-69
2022/02/13 01:24:17;;;;;;;;;;;;;;;;;;5084987;28;20435;-69
2022/02/13 01:26:43;;;;;;;;;;;;;;;;;;5091854;28;20276;-69
2022/02/13 01:29:09;;;;;;;;;;;;;;;;;;5077340;28;19908;-69
2022/02/13 01:31:36;;;;;;;;;;;;;;;;;;5078933;28;20354;-69
2022/02/13 01:34:02;;;;;;;;;;;;;;;;;;5084443;28;19908;-69
2022/02/13 01:36:28;;;;;;;;;;;;;;;;;;5084625;28;19916;-69
2022/02/13 01:38:53;;;;;;;;;;;;;;;;;;5090679;28;19912;-69
2022/02/13 01:41:19;;;;;;;;;;;;;;;;;;5088915;28;19904;-69
2022/02/13 01:43:45;;;;;;;;;;;;;;;;;;5080162;28;19962;-69
2022/02/13 01:46:11;;;;;;;;;;;;;;;;;;5084055;28;19949;-69
2022/02/13 01:48:37;;;;;;;;;;;;;;;;;;5084293;28;19913;-69
2022/02/13 01:51:04;;;;;;;;;;;;;;;;;;5083919;28;19959;-69
2022/02/13 01:53:30;;;;;;;;;;;;;;;;;;5083866;28;20253;-69
2022/02/13 01:55:56;;;;;;;;;;;;;;;;;;5083464;28;19922;-69
2022/02/13 01:58:22;;;;;;;;;;;;;;;;;;5083612;28;20049;-69
2022/02/13 02:00:48;;;;;;;;;;;;;;;;;;5085470;28;19908;-69
2022/02/13 02:03:14;;;;;;;;;;;;;;;;;;5085042;28;19916;-69
2022/02/13 02:05:42;;;;;;;;;;;;;;;;;;5090727;28;19904;-69
2022/02/13 02:08:08;;;;;;;;;;;;;;;;;;5082885;28;19916;-69
2022/02/13 02:10:33;;;;;;;;;;;;;;;;;;5083825;28;19907;-69
2022/02/13 02:12:59;;;;;;;;;;;;;;;;;;5083607;28;19912;-68
2022/02/13 02:15:25;;;;;;;;;;;;;;;;;;5083092;28;20035;-69
2022/02/13 02:17:51;;;;;;;;;;;;;;;;;;5089497;28;19904;-68
2022/02/13 02:20:17;;;;;;;;;;;;;;;;;;5084811;28;20309;-68
2022/02/13 02:22:43;;;;;;;;;;;;;;;;;;5083555;28;20298;-69
2022/02/13 02:25:09;;;;;;;;;;;;;;;;;;5082816;28;19908;-69
2022/02/13 02:27:35;;;;;;;;;;;;;;;;;;5083060;28;19924;-69
2022/02/13 02:30:01;;;;;;;;;;;;;;;;;;5075798;28;19912;-68
2022/02/13 02:32:27;;;;;;;;;;;;;;;;;;5086705;28;19951;-68
2022/02/13 02:34:53;;;;;;;;;;;;;;;;;;5083171;28;19961;-69
2022/02/13 02:37:19;;;;;;;;;;;;;;;;;;5082558;28;19908;-68
2022/02/13 02:39:45;;;;;;;;;;;;;;;;;;5084622;28;19995;-69
2022/02/13 02:42:13;;;;;;;;;;;;;;;;;;5085427;28;19908;-69
2022/02/13 02:44:39;;;;;;;;;;;;;;;;;;5089769;28;19904;-69
2022/02/13 02:47:05;;;;;;;;;;;;;;;;;;5082334;28;20014;-68
2022/02/13 02:49:31;;;;;;;;;;;;;;;;;;5082855;28;19912;-68
2022/02/13 02:51:57;;;;;;;;;;;;;;;;;;5082925;28;19930;-68
2022/02/13 02:54:23;;;;;;;;;;;;;;;;;;5082857;28;19912;-68
2022/02/13 02:56:49;;;;;;;;;;;;;;;;;;5088740;28;20669;-68
2022/02/13 02:59:14;;;;;;;;;;;;;;;;;;5085108;28;19915;-68
2022/02/13 03:01:40;;;;;;;;;;;;;;;;;;5082933;28;19915;-69
2022/02/13 03:04:06;;;;;;;;;;;;;;;;;;5082568;28;20351;-68
2022/02/13 03:06:32;;;;;;;;;;;;;;;;;;5082234;28;19913;-68
2022/02/13 03:08:58;;;;;;;;;;;;;;;;;;5088000;28;19958;-68
2022/02/13 03:11:25;;;;;;;;;;;;;;;;;;5085629;28;19969;-68
2022/02/13 03:13:51;;;;;;;;;;;;;;;;;;5082706;28;20275;-68
2022/02/13 03:16:16;;;;;;;;;;;;;;;;;;5082077;28;19915;-69
2022/02/13 03:18:42;;;;;;;;;;;;;;;;;;5082396;28;20029;-68
2022/02/13 03:21:08;;;;;;;;;;;;;;;;;;5085538;28;19917;-68
2022/02/13 03:23:34;;;;;;;;;;;;;;;;;;5087697;28;19904;-68
2022/02/13 03:26:00;;;;;;;;;;;;;;;;;;5082365;28;20385;-68
2022/02/13 03:28:26;;;;;;;;;;;;;;;;;;5082736;28;20005;-68
2022/02/13 03:30:52;;;;;;;;;;;;;;;;;;5077474;28;19918;-68
2022/02/13 03:33:18;;;;;;;;;;;;;;;;;;5089658;28;19908;-68
2022/02/13 03:35:43;;;;;;;;;;;;;;;;;;5097132;28;20351;-68
2022/02/13 03:38:09;;;;;;;;;;;;;;;;;;5088862;28;19986;-69
2022/02/13 03:40:35;;;;;;;;;;;;;;;;;;5089090;28;19908;-69
2022/02/13 03:43:05;;;;;;;;;;;;;;;;;;5088786;28;19908;-68
2022/02/13 03:45:30;;;;;;;;;;;;;;;;;;5089172;28;19908;-68
2022/02/13 03:47:56;;;;;;;;;;;;;;;;;;5094759;28;20337;-68
2022/02/13 03:50:22;;;;;;;;;;;;;;;;;;5091788;28;20289;-68
2022/02/13 03:52:48;;;;;;;;;;;;;;;;;;5088311;28;19908;-68
2022/02/13 03:55:16;;;;;;;;;;;;;;;;;;5088549;28;19911;-68
2022/02/13 03:57:42;;;;;;;;;;;;;;;;;;5088956;28;19908;-68
2022/02/13 04:00:08;;;;;;;;;;;;;;;;;;5090816;28;19915;-68
2022/02/13 04:02:34;;;;;;;;;;;;;;;;;;5093957;28;19931;-69
2022/02/13 04:04:59;;;;;;;;;;;;;;;;;;5088418;28;19961;-68
2022/02/13 04:07:28;;;;;;;;;;;;;;;;;;5088556;28;20313;-68
2022/02/13 04:09:54;;;;;;;;;;;;;;;;;;5088902;28;19986;-68
2022/02/13 04:12:19;;;;;;;;;;;;;;;;;;5089033;28;20381;-68
2022/02/13 04:14:46;;;;;;;;;;;;;;;;;;5096557;28;19911;-68
2022/02/13 04:17:12;;;;;;;;;;;;;;;;;;5088346;28;19908;-68
2022/02/13 04:19:37;;;;;;;;;;;;;;;;;;5089096;28;19914;-68
2022/02/13 04:22:03;;;;;;;;;;;;;;;;;;5088571;28;19927;-68
2022/02/13 04:24:29;;;;;;;;;;;;;;;;;;5088430;28;20287;-68
2022/02/13 04:26:55;;;;;;;;;;;;;;;;;;5093919;28;19912;-68
2022/02/13 04:29:21;;;;;;;;;;;;;;;;;;5083406;28;19962;-68
2022/02/13 04:31:47;;;;;;;;;;;;;;;;;;5092936;28;20284;-68
2022/02/13 04:34:13;;;;;;;;;;;;;;;;;;5077859;28;19919;-68
2022/02/13 04:36:39;;;;;;;;;;;;;;;;;;5074966;28;19955;-68
2022/02/13 04:39:05;;;;;;;;;;;;;;;;;;5074755;28;19950;-68
2022/02/13 04:41:30;;;;;;;;;;;;;;;;;;5076257;28;19905;-68
2022/02/13 04:43:56;;;;;;;;;;;;;;;;;;5074913;28;20324;-68
2022/02/13 04:46:22;;;;;;;;;;;;;;;;;;5074511;28;20227;-68
2022/02/13 04:48:48;;;;;;;;;;;;;;;;;;5071588;28;19962;-68
2022/02/13 04:51:14;;;;;;;;;;;;;;;;;;5071615;28;19909;-68
2022/02/13 04:53:40;;;;;;;;;;;;;;;;;;5076515;28;19904;-68
2022/02/13 04:56:06;;;;;;;;;;;;;;;;;;5074405;28;19908;-68
2022/02/13 04:58:32;;;;;;;;;;;;;;;;;;5073981;28;20011;-68
2022/02/13 05:00:58;;;;;;;;;;;;;;;;;;5072679;28;19961;-68
2022/02/13 05:03:24;;;;;;;;;;;;;;;;;;5084761;28;19917;-69
2022/02/13 05:05:51;;;;;;;;;;;;;;;;;;5092035;28;19995;-68
2022/02/13 05:08:17;;;;;;;;;;;;;;;;;;5086155;28;19992;-68
2022/02/13 05:10:43;;;;;;;;;;;;;;;;;;5084345;28;20413;-69
2022/02/13 05:13:09;;;;;;;;;;;;;;;;;;5084630;28;19908;-68
2022/02/13 05:15:35;;;;;;;;;;;;;;;;;;5084648;28;20344;-69
2022/02/13 05:18:01;;;;;;;;;;;;;;;;;;5089473;28;19954;-69
2022/02/13 05:20:26;;;;;;;;;;;;;;;;;;5087280;28;19904;-69
2022/02/13 05:22:52;;;;;;;;;;;;;;;;;;5084291;28;19920;-69
2022/02/13 05:25:18;;;;;;;;;;;;;;;;;;5084819;28;20403;-69
2022/02/13 05:27:44;;;;;;;;;;;;;;;;;;5085989;28;19949;-69
2022/02/13 05:30:10;;;;;;;;;;;;;;;;;;5072307;28;19916;-69
2022/02/13 05:32:36;;;;;;;;;;;;;;;;;;5089555;28;19910;-69
2022/02/13 05:35:02;;;;;;;;;;;;;;;;;;5084388;28;19908;-69
2022/02/13 05:37:28;;;;;;;;;;;;;;;;;;5084457;28;19908;-69
2022/02/13 05:39:54;;;;;;;;;;;;;;;;;;5083737;28;19958;-69
2022/02/13 05:42:23;;;;;;;;;;;;;;;;;;5068163;28;19912;-69
2022/02/13 05:44:49;;;;;;;;;;;;;;;;;;5091633;28;19908;-69
2022/02/13 05:47:15;;;;;;;;;;;;;;;;;;5076095;28;19917;-69
2022/02/13 05:49:41;;;;;;;;;;;;;;;;;;5072340;28;20347;-69
2022/02/13 05:52:06;;;;;;;;;;;;;;;;;;5071970;28;20007;-69
2022/02/13 05:54:32;;;;;;;;;;;;;;;;;;5070554;28;19909;-69
2022/02/13 05:56:58;;;;;;;;;;;;;;;;;;5073150;28;19904;-69
2022/02/13 05:59:24;;;;;;;;;;;;;;;;;;5074404;28;20003;-69
2022/02/13 06:01:53;;;;;;;;;;;;;;;;;;5073132;28;20235;-69
2022/02/13 06:04:19;;;;;;;;;;;;;;;;;;5072310;28;19912;-69
2022/02/13 06:06:45;;;;;;;;;;;;;;;;;;5072875;28;19916;-69
2022/02/13 06:09:11;;;;;;;;;;;;;;;;;;5085984;28;22994;-69
2022/02/13 06:11:37;;;;;;;;;;;;;;;;;;5089934;28;20339;-69
2022/02/13 06:14:03;;;;;;;;;;;;;;;;;;5083402;28;19957;-69
2022/02/13 06:16:29;;;;;;;;;;;;;;;;;;5083556;28;19912;-69
2022/02/13 06:18:55;;;;;;;;;;;;;;;;;;5082722;28;19951;-69
2022/02/13 06:21:21;;;;;;;;;;;;;;;;;;5083641;28;19909;-71
2022/02/13 06:23:47;;;;;;;;;;;;;;;;;;5091669;28;20359;-63
2022/02/13 06:26:14;;;;;;;;;;;;;;;;;;5068111;28;20379;-64
2022/02/13 06:28:40;;;;;;;;;;;;;;;;;;5063216;28;19920;-66
2022/02/13 06:31:06;;;;;;;;;;;;;;;;;;5064368;28;20100;-65
2022/02/13 06:33:31;;;;;;;;;;;;;;;;;;5051805;28;19909;-61
2022/02/13 06:35:57;;;;;;;;;;;;;;;;;;5053457;28;19904;-63
2022/02/13 06:38:23;;;;;;;;;;;;;;;;;;5055403;28;19912;-67
2022/02/13 06:40:49;;;;;;;;;;;;;;;;;;5062636;28;20359;-65
2022/02/13 06:43:15;;;;;;;;;;;;;;;;;;5063106;28;19912;-65
2022/02/13 06:45:41;;;;;;;;;;;;;;;;;;5053826;28;20026;-66
2022/02/13 06:48:07;;;;;;;;;;;;;;;;;;5051651;28;20008;-69
2022/02/13 06:50:33;;;;;;;;;;;;;;;;;;5065771;28;20077;-67
2022/02/13 06:52:59;;;;;;;;;;;;;;;;;;5063847;28;20307;-69
2022/02/13 06:55:25;;;;;;;;;;;;;;;;;;5061698;28;19908;-69
2022/02/13 06:57:51;;;;;;;;;;;;;;;;;;5053913;28;19909;-69
2022/02/13 07:00:17;;;;;;;;;;;;;;;;;;5053882;28;19955;-68
2022/02/13 07:02:42;;;;;;;;;;;;;;;;;;5053544;28;20299;-70
2022/02/13 07:05:08;;;;;;;;;;;;;;;;;;5053089;28;19954;-70
2022/02/13 07:07:34;;;;;;;;;;;;;;;;;;5069673;28;19943;-71
2022/02/13 07:10:00;;;;;;;;;;;;;;;;;;5053021;28;20376;-72
2022/02/13 07:12:26;;;;;;;;;;;;;;;;;;5049866;28;19909;-69
2022/02/13 07:14:52;;;;;;;;;;;;;;;;;;5064136;28;20504;-70
2022/02/13 07:17:18;;;;;;;;;;;;;;;;;;5066556;28;19923;-70
2022/02/13 07:19:44;;;;;;;;;;;;;;;;;;5063953;28;19908;-71
2022/02/13 07:22:09;;;;;;;;;;;;;;;;;;5065550;28;19920;-72
2022/02/13 07:24:37;;;;;;;;;;;;;;;;;;5065328;28;19952;-71
2022/02/13 07:27:03;;;;;;;;;;;;;;;;;;5065419;28;19926;-73
2022/02/13 07:29:29;;;;;;;;;;;;;;;;;;5066457;28;19991;-69
2022/02/13 07:31:55;;;;;;;;;;;;;;;;;;5076852;28;19927;-70
2022/02/13 07:34:21;;;;;;;;;;;;;;;;;;5065541;28;20410;-69
2022/02/13 07:36:52;;;;;;;;;;;;;;;;;;5065611;28;19916;-69
2022/02/13 07:39:19;;;;;;;;;;;;;;;;;;5060744;28;19957;-69
2022/02/13 07:41:45;;;;;;;;;;;;;;;;;;5065016;28;19904;-69
2022/02/13 07:44:11;;;;;;;;;;;;;;;;;;5064416;28;19962;-70
2022/02/13 07:46:37;;;;;;;;;;;;;;;;;;5063023;28;19995;-69
2022/02/13 07:49:05;;;;;;;;;;;;;;;;;;5065125;28;20332;-70
2022/02/13 07:51:32;;;;;;;;;;;;;;;;;;5060736;28;19919;-70
2022/02/13 07:53:58;;;;;;;;;;;;;;;;;;5061832;28;20457;-70
2022/02/13 07:56:23;;;;;;;;;;;;;;;;;;5061957;28;19912;-70
2022/02/13 07:58:49;;;;;;;;;;;;;;;;;;5061236;28;19912;-70
2022/02/13 08:01:19;;;;;;;;;;;;;;;;;;5059773;28;20376;-70
2022/02/13 08:03:45;;;;;;;;;;;;;;;;;;5060330;28;20787;-71
2022/02/13 08:06:12;;;;;;;;;;;;;;;;;;5059808;28;19916;-71
2022/02/13 08:08:38;;;;;;;;;;;;;;;;;;5062279;28;19928;-71
2022/02/13 08:11:04;;;;;;;;;;;;;;;;;;5054008;28;20276;-71
2022/02/13 08:13:30;;;;;;;;;;;;;;;;;;5053762;28;19923;-71
2022/02/13 08:15:56;;;;;;;;;;;;;;;;;;5061309;28;19913;-70
2022/02/13 08:18:22;;;;;;;;;;;;;;;;;;5069370;28;19948;-72
2022/02/13 08:20:49;;;;;;;;;;;;;;;;;;5057025;28;19904;-71
2022/02/13 08:23:15;;;;;;;;;;;;;;;;;;5080405;28;19973;-72
2022/02/13 08:25:41;;;;;;;;;;;;;;;;;;5085079;28;19912;-72
2022/02/13 08:28:06;;;;;;;;;;;;;;;;;;5084510;28;19951;-72
2022/02/13 08:30:32;;;;;;;;;;;;;;;;;;5072868;28;19943;-72
2022/02/13 08:32:58;;;;;;;;;;;;;;;;;;5090781;28;19994;-69
2022/02/13 08:35:24;;;;;;;;;;;;;;;;;;5086932;28;19904;-73
2022/02/13 08:37:50;;;;;;;;;;;;;;;;;;5085225;28;19916;-70
2022/02/13 08:40:16;;;;;;;;;;;;;;;;;;5084687;28;19915;-71
2022/02/13 08:42:42;;;;;;;;;;;;;;;;;;5084392;28;20010;-71
2022/02/13 08:45:08;;;;;;;;;;;;;;;;;;5087296;28;19957;-71
2022/02/13 08:47:34;;;;;;;;;;;;;;;;;;5089041;28;20018;-71
2022/02/13 08:49:59;;;;;;;;;;;;;;;;;;5085218;28;20271;-71
2022/02/13 08:52:25;;;;;;;;;;;;;;;;;;5084669;28;19907;-71
2022/02/13 08:54:51;;;;;;;;;;;;;;;;;;5084519;28;20472;-71
2022/02/13 08:57:17;;;;;;;;;;;;;;;;;;5085159;28;19913;-72
2022/02/13 08:59:43;;;;;;;;;;;;;;;;;;5092276;28;20323;-71
2022/02/13 09:02:09;;;;;;;;;;;;;;;;;;5082730;28;20507;-71
2022/02/13 09:04:35;;;;;;;;;;;;;;;;;;5082682;28;19923;-71
2022/02/13 09:07:01;;;;;;;;;;;;;;;;;;5081528;28;20407;-71
2022/02/13 09:09:27;;;;;;;;;;;;;;;;;;5082939;28;19909;-71
2022/02/13 09:11:53;;;;;;;;;;;;;;;;;;5089330;28;19919;-70
2022/02/13 09:14:19;;;;;;;;;;;;;;;;;;5084114;28;19908;-72
2022/02/13 09:16:45;;;;;;;;;;;;;;;;;;5082852;28;19947;-70
2022/02/13 09:19:11;;;;;;;;;;;;;;;;;;5084134;28;19908;-70
2022/02/13 09:21:37;;;;;;;;;;;;;;;;;;5084739;28;19917;-70
2022/02/13 09:24:03;;;;;;;;;;;;;;;;;;5089060;28;19911;-70
2022/02/13 09:26:28;;;;;;;;;;;;;;;;;;5086817;28;20387;-71
2022/02/13 09:28:54;;;;;;;;;;;;;;;;;;5079447;28;19909;-70
2022/02/13 09:31:20;;;;;;;;;;;;;;;;;;5076809;28;19908;-70
2022/02/13 09:33:46;;;;;;;;;;;;;;;;;;5085050;28;20359;-71
2022/02/13 09:36:12;;;;;;;;;;;;;;;;;;5086720;28;20406;-71
2022/02/13 09:38:38;;;;;;;;;;;;;;;;;;5090308;28;19910;-71
2022/02/13 09:41:05;;;;;;;;;;;;;;;;;;5084074;28;19908;-71
2022/02/13 09:43:31;;;;;;;;;;;;;;;;;;5083392;28;19973;-71
2022/02/13 09:45:58;;;;;;;;;;;;;;;;;;5084145;28;19908;-71
2022/02/13 09:48:26;;;;;;;;;;;;;;;;;;5084174;28;19925;-70
2022/02/13 09:50:52;;;;;;;;;;;;;;;;;;5091178;28;19978;-71
2022/02/13 09:53:18;;;;;;;;;;;;;;;;;;5085043;28;19916;-71
2022/02/13 09:55:44;;;;;;;;;;;;;;;;;;5084792;28;20046;-71
2022/02/13 09:58:10;;;;;;;;;;;;;;;;;;5084141;28;20306;-71
2022/02/13 10:00:36;;;;;;;;;;;;;;;;;;5083973;28;19905;-71
2022/02/13 10:03:01;;;;;;;;;;;;;;;;;;5088574;28;19907;-71
2022/02/13 10:05:27;;;;;;;;;;;;;;;;;;5086454;28;19919;-71
2022/02/13 10:07:53;;;;;;;;;;;;;;;;;;5082174;28;19956;-70
2022/02/13 10:10:19;;;;;;;;;;;;;;;;;;5082875;28;20231;-73
2022/02/13 10:12:47;;;;;;;;;;;;;;;;;;5083351;28;20293;-72
2022/02/13 10:15:13;;;;;;;;;;;;;;;;;;5085867;28;19917;-71
2022/02/13 10:17:39;;;;;;;;;;;;;;;;;;5089231;28;20057;-71
2022/02/13 10:20:04;;;;;;;;;;;;;;;;;;5082937;28;19911;-69
2022/02/13 10:22:33;;;;;;;;;;;;;;;;;;5083453;28;20268;-70
2022/02/13 10:24:59;;;;;;;;;;;;;;;;;;5082587;28;19969;-70
2022/02/13 10:27:30;;;;;;;;;;;;;;;;;;5083135;28;19917;-70
2022/02/13 10:29:56;;;;;;;;;;;;;;;;;;5076663;28;19911;-70
2022/02/13 10:32:22;;;;;;;;;;;;;;;;;;5086605;28;19950;-70
2022/02/13 10:34:48;;;;;;;;;;;;;;;;;;5082625;28;20299;-70
2022/02/13 10:37:14;;;;;;;;;;;;;;;;;;5083316;28;20309;-70
2022/02/13 10:39:40;;;;;;;;;;;;;;;;;;5081957;28;19922;-71
2022/02/13 10:42:06;;;;;;;;;;;;;;;;;;5087070;28;19939;-71
2022/02/13 10:44:32;;;;;;;;;;;;;;;;;;5087053;28;19961;-70
2022/02/13 10:46:58;;;;;;;;;;;;;;;;;;5083015;28;19927;-70
2022/02/13 10:49:24;;;;;;;;;;;;;;;;;;5082999;28;19916;-70
2022/02/13 10:51:51;;;;;;;;;;;;;;;;;;5082994;28;19908;-70
2022/02/13 10:54:17;;;;;;;;;;;;;;;;;;5082850;28;19916;-70
2022/02/13 10:56:43;;;;;;;;;;;;;;;;;;5090288;28;19904;-71
2022/02/13 10:59:09;;;;;;;;;;;;;;;;;;5082596;28;20276;-71
2022/02/13 11:01:35;;;;;;;;;;;;;;;;;;5082785;28;19908;-71
2022/02/13 11:04:04;;;;;;;;;;;;;;;;;;5082076;28;20021;-70
2022/02/13 11:06:30;;;;;;;;;;;;;;;;;;5082706;28;19908;-70
2022/02/13 11:08:56;;;;;;;;;;;;;;;;;;5087922;28;19912;-71
2022/02/13 11:11:22;;;;;;;;;;;;;;;;;;5086326;28;20231;-70
2022/02/13 11:13:48;;;;;;;;;;;;;;;;;;5082326;28;19999;-70
2022/02/13 11:16:14;;;;;;;;;;;;;;;;;;5082342;28;19912;-70
2022/02/13 11:18:41;;;;;;;;;;;;;;;;;;5082268;28;19915;-70
2022/02/13 11:21:07;;;;;;;;;;;;;;;;;;5085920;28;19912;-70
2022/02/13 11:23:33;;;;;;;;;;;;;;;;;;5086822;28;19953;-69
2022/02/13 11:25:59;;;;;;;;;;;;;;;;;;5081938;28;20457;-69
2022/02/13 11:28:27;;;;;;;;;;;;;;;;;;5081187;28;20006;-69
2022/02/13 11:30:52;;;;;;;;;;;;;;;;;;5070612;28;20006;-70
2022/02/13 11:33:18;;;;;;;;;;;;;;;;;;5083067;28;20379;-70
2022/02/13 11:35:44;;;;;;;;;;;;;;;;;;5089939;28;20268;-71
2022/02/13 11:38:10;;;;;;;;;;;;;;;;;;5081983;28;19979;-70
2022/02/13 11:40:40;;;;;;;;;;;;;;;;;;5081649;28;20017;-70
2022/02/13 11:43:07;;;;;;;;;;;;;;;;;;5083675;28;19904;-70
2022/02/13 11:45:37;;;;;;;;;;;;;;;;;;5081793;28;19935;-70
2022/02/13 11:48:03;;;;;;;;;;;;;;;;;;5087075;28;19916;-70
2022/02/13 11:50:29;;;;;;;;;;;;;;;;;;5088134;28;20365;-70
2022/02/13 11:52:55;;;;;;;;;;;;;;;;;;5085439;28;19999;-70
2022/02/13 11:55:21;;;;;;;;;;;;;;;;;;5085951;28;20007;-70
2022/02/13 11:57:47;;;;;;;;;;;;;;;;;;5085764;28;19908;-70
2022/02/13 12:00:14;;;;;;;;;;;;;;;;;;5088393;28;20509;-71
2022/02/13 12:02:44;;;;;;;;;;;;;;;;;;5092438;28;19904;-70
2022/02/13 12:05:10;;;;;;;;;;;;;;;;;;5085066;28;20267;-70
2022/02/13 12:07:36;;;;;;;;;;;;;;;;;;5085972;28;20015;-71
2022/02/13 12:10:03;;;;;;;;;;;;;;;;;;5085960;28;20342;-70
2022/02/13 12:12:28;;;;;;;;;;;;;;;;;;5086066;28;19987;-70
2022/02/13 12:14:54;;;;;;;;;;;;;;;;;;5092188;28;19999;-70
2022/02/13 12:17:20;;;;;;;;;;;;;;;;;;5087474;28;20333;-70
2022/02/13 12:19:46;;;;;;;;;;;;;;;;;;5086973;28;19904;-70
2022/02/13 12:22:12;;;;;;;;;;;;;;;;;;5085554;28;19995;-71
2022/02/13 12:24:38;;;;;;;;;;;;;;;;;;5085578;28;19951;-69
2022/02/13 12:27:04;;;;;;;;;;;;;;;;;;5090162;28;20264;-70
2022/02/13 12:29:30;;;;;;;;;;;;;;;;;;5078567;28;19905;-70
2022/02/13 12:31:56;;;;;;;;;;;;;;;;;;5083004;28;19908;-69
2022/02/13 12:34:21;;;;;;;;;;;;;;;;;;5085251;28;19919;-70
2022/02/13 12:36:47;;;;;;;;;;;;;;;;;;5085242;28;20030;-69
2022/02/13 12:39:13;;;;;;;;;;;;;;;;;;5087587;28;20246;-69
2022/02/13 12:41:40;;;;;;;;;;;;;;;;;;5091470;28;19904;-69
2022/02/13 12:44:06;;;;;;;;;;;;;;;;;;5085017;28;20405;-70
2022/02/13 12:46:32;;;;;;;;;;;;;;;;;;5085150;28;19908;-70
2022/02/13 12:48:58;;;;;;;;;;;;;;;;;;5084938;28;19938;-69
2022/02/13 12:51:24;;;;;;;;;;;;;;;;;;5084989;28;19913;-69
2022/02/13 12:53:50;;;;;;;;;;;;;;;;;;5093183;28;20010;-69
2022/02/13 12:56:16;;;;;;;;;;;;;;;;;;5084992;28;20286;-69
2022/02/13 12:58:42;;;;;;;;;;;;;;;;;;5084961;28;19911;-70
2022/02/13 13:01:13;;;;;;;;;;;;;;;;;;5084196;28;19977;-70
2022/02/13 13:03:39;;;;;;;;;;;;;;;;;;5084837;28;19909;-69
2022/02/13 13:06:05;;;;;;;;;;;;;;;;;;5088702;28;19949;-70
2022/02/13 13:08:31;;;;;;;;;;;;;;;;;;5088741;28;19911;-70
2022/02/13 13:10:57;;;;;;;;;;;;;;;;;;5084587;28;19998;-69
2022/02/13 13:13:23;;;;;;;;;;;;;;;;;;5084468;28;20022;-70
2022/02/13 13:15:55;;;;;;;;;;;;;;;;;;5084745;28;20311;-70
2022/02/13 13:18:21;;;;;;;;;;;;;;;;;;5052785;28;19912;-70
2022/02/13 13:20:46;;;;;;;;;;;;;;;;;;5077990;28;19927;-70
2022/02/13 13:23:13;;;;;;;;;;;;;;;;;;5084486;28;19932;-69
2022/02/13 13:25:39;;;;;;;;;;;;;;;;;;5084278;28;19908;-70
2022/02/13 13:28:05;;;;;;;;;;;;;;;;;;5083870;28;19973;-69
2022/02/13 13:30:31;;;;;;;;;;;;;;;;;;5071648;28;20256;-69
2022/02/13 13:33:00;;;;;;;;;;;;;;;;;;5089948;28;19904;-70
2022/02/13 13:35:28;;;;;;;;;;;;;;;;;;5087019;28;19927;-69
2022/02/13 13:37:54;;;;;;;;;;;;;;;;;;5085382;28;20310;-69
2022/02/13 13:40:20;;;;;;;;;;;;;;;;;;5084217;28;20020;-69
2022/02/13 13:42:45;;;;;;;;;;;;;;;;;;5084353;28;20345;-69
2022/02/13 13:45:11;;;;;;;;;;;;;;;;;;5086974;28;19916;-69
2022/02/13 13:47:37;;;;;;;;;;;;;;;;;;5089272;28;19919;-69
2022/02/13 13:50:03;;;;;;;;;;;;;;;;;;5083254;28;20303;-70
2022/02/13 13:52:29;;;;;;;;;;;;;;;;;;5084137;28;20363;-70
2022/02/13 13:54:55;;;;;;;;;;;;;;;;;;5081308;28;19939;-69
2022/02/13 13:57:21;;;;;;;;;;;;;;;;;;5083129;28;20003;-69
2022/02/13 13:59:47;;;;;;;;;;;;;;;;;;5092078;28;19903;-69
2022/02/13 14:02:13;;;;;;;;;;;;;;;;;;5083661;28;19908;-69
2022/02/13 14:04:38;;;;;;;;;;;;;;;;;;5083656;28;19908;-69
2022/02/13 14:07:04;;;;;;;;;;;;;;;;;;5083469;28;20298;-69
2022/02/13 14:09:30;;;;;;;;;;;;;;;;;;5083386;28;19919;-69
2022/02/13 14:11:56;;;;;;;;;;;;;;;;;;5087956;28;20562;-70
2022/02/13 14:14:22;;;;;;;;;;;;;;;;;;5089282;28;19909;-69
2022/02/13 14:16:48;;;;;;;;;;;;;;;;;;5079297;28;19908;-70
2022/02/13 14:19:14;;;;;;;;;;;;;;;;;;5083386;28;19911;-69
2022/02/13 14:21:40;;;;;;;;;;;;;;;;;;5083099;28;19924;-69
2022/02/13 14:24:05;;;;;;;;;;;;;;;;;;5087430;28;19965;-69
2022/02/13 14:26:31;;;;;;;;;;;;;;;;;;5087391;28;19904;-69
2022/02/13 14:28:57;;;;;;;;;;;;;;;;;;5077165;28;20170;-69
2022/02/13 14:31:23;;;;;;;;;;;;;;;;;;5075568;28;19908;-69
2022/02/13 14:33:49;;;;;;;;;;;;;;;;;;5083094;28;19943;-69
2022/02/13 14:36:15;;;;;;;;;;;;;;;;;;5084914;28;19966;-69
2022/02/13 14:38:41;;;;;;;;;;;;;;;;;;5089371;28;19904;-69
2022/02/13 14:41:08;;;;;;;;;;;;;;;;;;5082757;28;20310;-70
2022/02/13 14:43:33;;;;;;;;;;;;;;;;;;5083164;28;20046;-69
2022/02/13 14:45:59;;;;;;;;;;;;;;;;;;5082602;28;19908;-71
2022/02/13 14:48:25;;;;;;;;;;;;;;;;;;5082926;28;19964;-70
2022/02/13 14:50:51;;;;;;;;;;;;;;;;;;5089880;28;19908;-69
2022/02/13 14:53:17;;;;;;;;;;;;;;;;;;5083784;28;19915;-70
2022/02/13 14:55:43;;;;;;;;;;;;;;;;;;5082690;28;19915;-70
2022/02/13 14:58:09;;;;;;;;;;;;;;;;;;5082587;28;20317;-69
2022/02/13 15:00:35;;;;;;;;;;;;;;;;;;5082692;28;19913;-70
2022/02/13 15:03:01;;;;;;;;;;;;;;;;;;5087917;28;20280;-70
2022/02/13 15:05:27;;;;;;;;;;;;;;;;;;5085501;28;19904;-70
2022/02/13 15:07:53;;;;;;;;;;;;;;;;;;5082060;28;19969;-70
2022/02/13 15:10:19;;;;;;;;;;;;;;;;;;5082482;28;19991;-69
2022/02/13 15:12:45;;;;;;;;;;;;;;;;;;5082519;28;20331;-70
2022/02/13 15:15:11;;;;;;;;;;;;;;;;;;5083671;28;19916;-70
2022/02/13 15:17:37;;;;;;;;;;;;;;;;;;5087525;28;19992;-70
2022/02/13 15:20:04;;;;;;;;;;;;;;;;;;5082524;28;19915;-69
2022/02/13 15:22:30;;;;;;;;;;;;;;;;;;5082099;28;20477;-69
2022/02/13 15:24:56;;;;;;;;;;;;;;;;;;5081793;28;19955;-69
2022/02/13 15:27:22;;;;;;;;;;;;;;;;;;5082406;28;19926;-70
2022/02/13 15:29:50;;;;;;;;;;;;;;;;;;5077677;28;19904;-69
2022/02/13 15:32:16;;;;;;;;;;;;;;;;;;5082661;28;19908;-69
2022/02/13 15:34:43;;;;;;;;;;;;;;;;;;5082435;28;19911;-70
2022/02/13 15:37:09;;;;;;;;;;;;;;;;;;5081540;28;19919;-69
2022/02/13 15:39:35;;;;;;;;;;;;;;;;;;5082314;28;19909;-70
2022/02/13 15:42:01;;;;;;;;;;;;;;;;;;5087612;28;19954;-69
2022/02/13 15:44:27;;;;;;;;;;;;;;;;;;5085002;28;20391;-69
2022/02/13 15:46:54;;;;;;;;;;;;;;;;;;5081393;28;19922;-70
2022/02/13 15:49:20;;;;;;;;;;;;;;;;;;5081852;28;19915;-70
2022/02/13 15:51:46;;;;;;;;;;;;;;;;;;5081390;28;19912;-70
2022/02/13 15:54:12;;;;;;;;;;;;;;;;;;5084909;28;19943;-69
2022/02/13 15:56:38;;;;;;;;;;;;;;;;;;5087360;28;20260;-70
2022/02/13 15:59:04;;;;;;;;;;;;;;;;;;5081102;28;20386;-69
2022/02/13 16:01:29;;;;;;;;;;;;;;;;;;5081807;28;19912;-70
2022/02/13 16:03:56;;;;;;;;;;;;;;;;;;5081917;28;20382;-69
2022/02/13 16:06:22;;;;;;;;;;;;;;;;;;5081616;28;19928;-69
2022/02/13 16:08:48;;;;;;;;;;;;;;;;;;5089547;28;19923;-70
2022/02/13 16:11:14;;;;;;;;;;;;;;;;;;5081470;28;19912;-70
2022/02/13 16:13:40;;;;;;;;;;;;;;;;;;5079766;28;19907;-70
2022/02/13 16:16:05;;;;;;;;;;;;;;;;;;5079929;28;19915;-71
2022/02/13 16:18:31;;;;;;;;;;;;;;;;;;5079422;28;20288;-70
2022/02/13 16:20:57;;;;;;;;;;;;;;;;;;5064868;28;20349;-69
2022/02/13 16:26:09;;;;;;;;;;;;;;;;;;5063750;28;19916;-68
2022/02/13 16:28:35;;;;;;;;;;;;;;;;;;5060941;28;20019;-67
2022/02/13 16:31:01;;;;;;;;;;;;;;;;;;5062062;28;19987;-69
2022/02/13 16:33:28;;;;;;;;;;;;;;;;;;5048590;28;19909;-64
2022/02/13 16:35:54;;;;;;;;;;;;;;;;;;5065705;28;19916;-65
2022/02/13 16:38:20;;;;;;;;;;;;;;;;;;5055100;28;20359;-66
2022/02/13 16:40:46;;;;;;;;;;;;;;;;;;5061158;28;19962;-67